Holly Springs, North Carolina
Current Conditions -  °F | °C
As of 1:51 PM on Tuesday 21 Oct 2014 (Local Time) from KRDU Reporting Station
Scattered Clouds Scattered Clouds  
Wind Chill: 73°   Ceiling: Unl
Heat Index: 73°   Visibility: 10mi
Dew Point: 48°   Wind: 8mph
Humidity: 41%   Direction: 320°NW
Pressure: 29.86"   Gusts: NA
Location:  35.65°N, 78.83°W
Report Text: KRDU 211751Z 32007KT 10SM SCT050 23/09 A2986 RMK AO2 SLP109 T02280089 10228 20111 58022
Loading
Personal Weather Stations






























Interactive Weather Map
Tropical Storm Tracking
New forecast layout! Learn more

10-Day Weather Forecast

Advertisements
Track Severe Weather on mobile